createdAt,value
2019-06-15T00:00:41.759Z,8.90
2019-06-15T00:01:41.741Z,7.90
2019-06-15T00:02:41.727Z,12.00
2019-06-15T00:03:41.712Z,10.70
2019-06-15T00:04:41.690Z,8.20
2019-06-15T00:05:41.709Z,7.60
2019-06-15T00:06:41.655Z,7.50
2019-06-15T00:07:41.642Z,4.70
2019-06-15T00:08:41.661Z,10.10
2019-06-15T00:09:41.604Z,8.40
2019-06-15T00:10:41.588Z,6.70
2019-06-15T00:11:41.571Z,10.50
2019-06-15T00:12:42.308Z,6.70
2019-06-15T00:13:41.537Z,7.30
2019-06-15T00:14:41.523Z,6.60
2019-06-15T00:15:41.503Z,9.90
2019-06-15T00:16:41.485Z,6.80
2019-06-15T00:17:41.470Z,7.60
2019-06-15T00:18:41.499Z,6.10
2019-06-15T00:19:41.436Z,6.90
2019-06-15T00:20:41.419Z,8.80
2019-06-15T00:21:41.401Z,7.50
2019-06-15T00:22:41.387Z,6.50
2019-06-15T00:23:42.162Z,11.80
2019-06-15T00:24:41.351Z,8.50
2019-06-15T00:25:41.339Z,11.80
2019-06-15T00:26:41.317Z,7.50
2019-06-15T00:27:41.302Z,8.10
2019-06-15T00:28:41.285Z,7.00
2019-06-15T00:29:41.266Z,7.90
2019-06-15T00:30:41.251Z,11.70
2019-06-15T00:31:41.234Z,7.10
2019-06-15T00:32:41.217Z,10.60
2019-06-15T00:33:41.199Z,8.40
2019-06-15T00:34:41.184Z,8.20
2019-06-15T00:35:41.166Z,8.70
2019-06-15T00:36:41.151Z,8.90
2019-06-15T00:37:41.131Z,6.80
2019-06-15T00:38:41.116Z,7.60
2019-06-15T00:39:41.102Z,7.40
2019-06-15T00:40:41.081Z,8.40
2019-06-15T00:41:41.063Z,7.80
2019-06-15T00:42:41.046Z,5.90
2019-06-15T00:43:41.030Z,7.30
2019-06-15T00:44:41.013Z,10.60
2019-06-15T00:45:40.995Z,9.60
2019-06-15T00:46:40.978Z,5.60
2019-06-15T00:47:40.962Z,6.50
2019-06-15T00:48:40.953Z,6.30
2019-06-15T00:49:40.927Z,11.40
2019-06-15T00:50:40.910Z,7.30
2019-06-15T00:51:40.893Z,9.60
2019-06-15T00:52:40.876Z,6.90
2019-06-15T00:53:40.858Z,3.60
2019-06-15T00:54:49.939Z,6.50
2019-06-15T00:55:40.823Z,7.40
2019-06-15T00:56:40.807Z,7.70
2019-06-15T00:57:40.790Z,7.80
2019-06-15T00:58:40.801Z,7.50
2019-06-15T00:59:40.755Z,7.30
2019-06-15T01:00:40.737Z,7.30
2019-06-15T01:01:40.720Z,7.30
2019-06-15T01:02:40.704Z,6.80
2019-06-15T01:03:40.685Z,8.80
2019-06-15T01:04:40.712Z,9.00
2019-06-15T01:05:40.649Z,8.30
2019-06-15T01:06:40.632Z,9.30
2019-06-15T01:07:40.615Z,7.70
2019-06-15T01:08:40.597Z,10.40
2019-06-15T01:09:40.579Z,6.80
2019-06-15T01:10:40.563Z,7.70
2019-06-15T01:11:40.545Z,7.20
2019-06-15T01:12:40.527Z,6.60
2019-06-15T01:13:40.507Z,10.30
2019-06-15T01:14:40.492Z,7.70
2019-06-15T01:15:40.473Z,7.30
2019-06-15T01:16:40.455Z,8.50
2019-06-15T01:17:40.437Z,7.40
2019-06-15T01:18:40.419Z,8.10
2019-06-15T01:19:40.410Z,8.50
2019-06-15T01:20:40.384Z,8.40
2019-06-15T01:21:40.372Z,9.90
2019-06-15T01:22:40.347Z,11.30
2019-06-15T01:23:40.329Z,8.30
2019-06-15T01:24:40.310Z,7.60
2019-06-15T01:25:40.291Z,6.50
2019-06-15T01:26:40.274Z,7.10
2019-06-15T01:27:40.257Z,8.80
2019-06-15T01:28:40.238Z,8.40
2019-06-15T01:29:40.220Z,6.40
2019-06-15T01:30:40.202Z,7.70
2019-06-15T01:31:40.184Z,7.30
2019-06-15T01:32:40.165Z,6.20
2019-06-15T01:33:40.147Z,7.10
2019-06-15T01:34:40.130Z,5.90
2019-06-15T01:35:40.112Z,8.50
2019-06-15T01:36:40.093Z,6.60
2019-06-15T01:37:40.074Z,7.10
2019-06-15T01:38:40.058Z,9.40
2019-06-15T01:39:40.038Z,8.70
2019-06-15T01:40:40.021Z,5.90
2019-06-15T01:41:40.034Z,7.60
2019-06-15T01:42:39.987Z,6.20
2019-06-15T01:43:39.969Z,8.40
2019-06-15T01:44:39.947Z,10.10
2019-06-15T01:45:39.929Z,8.70
2019-06-15T01:46:39.912Z,9.10
2019-06-15T01:47:39.893Z,9.10
2019-06-15T01:48:39.877Z,9.80
2019-06-15T01:49:39.863Z,4.40
2019-06-15T01:50:39.839Z,6.50
2019-06-15T01:51:39.821Z,6.20
2019-06-15T01:52:39.803Z,6.20
2019-06-15T01:53:39.785Z,8.80
2019-06-15T01:54:39.766Z,8.90
2019-06-15T01:55:39.749Z,5.90
2019-06-15T01:56:40.482Z,7.90
2019-06-15T01:57:39.711Z,5.20
2019-06-15T01:58:39.694Z,12.60
2019-06-15T01:59:39.676Z,8.90
2019-06-15T02:00:39.692Z,6.60
2019-06-15T02:01:39.640Z,10.80
2019-06-15T02:02:39.630Z,7.20
2019-06-15T02:03:39.603Z,9.60
2019-06-15T02:04:39.585Z,7.60
2019-06-15T02:05:39.568Z,7.50
2019-06-15T02:06:39.548Z,6.90
2019-06-15T02:07:39.531Z,7.10
2019-06-15T02:08:39.512Z,6.60
2019-06-15T02:09:39.497Z,8.70
2019-06-15T02:10:39.475Z,8.10
2019-06-15T02:11:39.457Z,8.30
2019-06-15T02:12:39.441Z,9.20
2019-06-15T02:13:39.422Z,10.20
2019-06-15T02:14:39.408Z,7.30
2019-06-15T02:15:39.385Z,7.50
2019-06-15T02:16:39.375Z,7.50
2019-06-15T02:17:39.346Z,10.60
2019-06-15T02:18:39.328Z,9.50
2019-06-15T02:19:39.318Z,11.30
2019-06-15T02:20:39.291Z,11.10
2019-06-15T02:21:39.278Z,10.60
2019-06-15T02:22:39.253Z,9.40
2019-06-15T02:23:39.234Z,10.80
2019-06-15T02:24:39.217Z,13.60
2019-06-15T02:25:39.196Z,12.40
2019-06-15T02:26:39.179Z,14.00
2019-06-15T02:27:39.161Z,13.30
2019-06-15T02:28:39.142Z,15.60
2019-06-15T02:29:39.182Z,13.00
2019-06-15T02:30:39.103Z,12.40
2019-06-15T02:31:39.087Z,13.80
2019-06-15T02:32:39.067Z,15.30
2019-06-15T02:33:39.047Z,14.30
2019-06-15T02:34:39.032Z,14.50
2019-06-15T02:35:39.009Z,16.90
2019-06-15T02:36:38.998Z,15.60
2019-06-15T02:37:39.019Z,18.80
2019-06-15T02:38:38.953Z,18.00
2019-06-15T02:39:38.931Z,17.90
2019-06-15T02:40:38.911Z,18.40
2019-06-15T02:41:38.892Z,20.50
2019-06-15T02:42:38.885Z,21.30
2019-06-15T02:43:38.852Z,19.30
2019-06-15T02:44:38.836Z,20.40
2019-06-15T02:45:38.812Z,20.00
2019-06-15T02:46:38.796Z,24.20
2019-06-15T02:47:38.774Z,18.10
2019-06-15T02:48:38.766Z,21.40
2019-06-15T02:49:38.733Z,19.80
2019-06-15T02:50:38.719Z,20.30
2019-06-15T02:51:38.695Z,19.10
2019-06-15T02:52:38.674Z,15.80
2019-06-15T02:53:38.655Z,17.20
2019-06-15T02:54:38.636Z,16.90
2019-06-15T02:55:50.165Z,17.50
2019-06-15T02:56:38.597Z,16.70
2019-06-15T02:57:38.576Z,17.70
2019-06-15T02:58:38.570Z,13.60
2019-06-15T02:59:38.543Z,17.00
2019-06-15T03:00:38.517Z,17.00
2019-06-15T03:01:38.497Z,15.10
2019-06-15T03:02:38.484Z,16.00
2019-06-15T03:03:38.460Z,17.30
2019-06-15T03:04:38.438Z,17.40
2019-06-15T03:05:39.921Z,17.30
2019-06-15T03:06:38.399Z,15.00
2019-06-15T03:07:38.380Z,15.30
2019-06-15T03:08:38.361Z,14.30
2019-06-15T03:09:38.339Z,15.80
2019-06-15T03:10:38.320Z,16.60
2019-06-15T03:11:39.051Z,12.80
2019-06-15T03:12:38.281Z,14.80
2019-06-15T03:13:38.260Z,14.40
2019-06-15T03:14:38.244Z,13.60
2019-06-15T03:15:38.222Z,12.70
2019-06-15T03:16:38.202Z,14.10
2019-06-15T03:17:38.206Z,15.00
2019-06-15T03:18:38.163Z,12.70
2019-06-15T03:19:38.142Z,10.70
2019-06-15T03:20:38.126Z,10.40
2019-06-15T03:21:38.149Z,14.10
2019-06-15T03:22:38.085Z,12.60
2019-06-15T03:23:38.069Z,12.40
2019-06-15T03:24:38.049Z,15.30
2019-06-15T03:25:38.027Z,10.70
2019-06-15T03:26:38.005Z,14.80
2019-06-15T03:27:37.985Z,14.10
2019-06-15T03:28:37.974Z,11.60
2019-06-15T03:29:37.945Z,15.90
2019-06-15T03:30:37.931Z,14.50
2019-06-15T03:31:37.908Z,16.20
2019-06-15T03:32:37.892Z,13.10
2019-06-15T03:33:37.871Z,13.90
2019-06-15T03:34:37.848Z,13.90
2019-06-15T03:35:37.828Z,12.50
2019-06-15T03:36:37.808Z,16.70
2019-06-15T03:37:37.790Z,15.10
2019-06-15T03:38:37.769Z,10.30
2019-06-15T03:39:37.750Z,12.60
2019-06-15T03:40:37.730Z,12.50
2019-06-15T03:41:37.709Z,10.60
2019-06-15T03:42:37.690Z,10.70
2019-06-15T03:43:37.721Z,10.70
2019-06-15T03:44:37.725Z,14.50
2019-06-15T03:45:37.631Z,13.00
2019-06-15T03:46:37.611Z,11.90
2019-06-15T03:47:37.594Z,14.50
2019-06-15T03:48:37.571Z,11.30
2019-06-15T03:49:37.551Z,10.90
2019-06-15T03:50:37.532Z,13.70
2019-06-15T03:51:37.513Z,14.80
2019-06-15T03:52:37.494Z,12.00
2019-06-15T03:53:37.471Z,11.20
2019-06-15T03:54:37.453Z,15.60
2019-06-15T03:55:40.407Z,12.10
2019-06-15T03:56:37.414Z,12.90
2019-06-15T03:57:37.394Z,9.30
2019-06-15T03:58:37.379Z,12.40
2019-06-15T03:59:37.360Z,14.00
2019-06-15T04:00:37.335Z,10.40
2019-06-15T04:01:37.372Z,11.30
2019-06-15T04:02:37.299Z,11.80
2019-06-15T04:03:37.280Z,9.10
2019-06-15T04:04:37.256Z,12.00
2019-06-15T04:05:37.238Z,14.00
2019-06-15T04:06:37.216Z,10.60
2019-06-15T04:07:37.195Z,10.40
2019-06-15T04:08:37.177Z,12.40
2019-06-15T04:09:37.160Z,12.30
2019-06-15T04:10:37.142Z,11.10
2019-06-15T04:11:37.116Z,11.40
2019-06-15T04:12:37.097Z,9.80
2019-06-15T04:13:37.076Z,11.50
2019-06-15T04:14:37.057Z,11.10
2019-06-15T04:15:37.045Z,14.80
2019-06-15T04:16:37.023Z,12.60
2019-06-15T04:17:36.998Z,8.70
2019-06-15T04:18:36.980Z,16.00
2019-06-15T04:19:36.987Z,11.20
2019-06-15T04:20:36.940Z,13.60
2019-06-15T04:21:36.919Z,10.40
2019-06-15T04:22:36.904Z,7.80
2019-06-15T04:23:36.881Z,11.80
2019-06-15T04:24:36.861Z,9.40
2019-06-15T04:25:36.840Z,12.00
2019-06-15T04:26:36.822Z,9.90
2019-06-15T04:27:36.803Z,10.50
2019-06-15T04:28:36.781Z,10.60
2019-06-15T04:29:36.762Z,10.40
2019-06-15T04:30:36.753Z,8.90
2019-06-15T04:31:39.845Z,11.00
2019-06-15T04:32:36.709Z,8.20
2019-06-15T04:33:36.684Z,8.90
2019-06-15T04:34:36.666Z,11.50
2019-06-15T04:35:36.646Z,12.20
2019-06-15T04:36:36.627Z,10.90
2019-06-15T04:37:36.608Z,8.70
2019-06-15T04:38:36.588Z,12.30
2019-06-15T04:39:36.567Z,10.40
2019-06-15T04:40:36.550Z,11.40
2019-06-15T04:41:36.529Z,9.10
2019-06-15T04:42:36.518Z,11.20
2019-06-15T04:43:36.491Z,12.00
2019-06-15T04:44:36.472Z,10.90
2019-06-15T04:45:36.452Z,8.70
2019-06-15T04:46:38.686Z,10.00
2019-06-15T04:47:36.414Z,10.90
2019-06-15T04:48:36.395Z,11.00
2019-06-15T04:49:36.378Z,11.80
2019-06-15T04:50:36.357Z,12.20
2019-06-15T04:51:36.339Z,11.70
2019-06-15T04:52:36.319Z,14.80
2019-06-15T04:53:36.299Z,11.20
2019-06-15T04:54:36.285Z,12.70
2019-06-15T04:55:36.266Z,11.50
2019-06-15T04:56:50.026Z,9.80
2019-06-15T04:57:36.224Z,13.00
2019-06-15T04:58:36.204Z,10.90
2019-06-15T04:59:36.185Z,10.60
2019-06-15T05:00:36.166Z,12.90
2019-06-15T05:01:36.147Z,9.50
2019-06-15T05:02:36.127Z,11.40
2019-06-15T05:03:36.108Z,12.40
2019-06-15T05:04:36.090Z,11.00
2019-06-15T05:05:36.074Z,12.50
2019-06-15T05:06:36.052Z,9.40
2019-06-15T05:07:36.032Z,9.60
2019-06-15T05:08:36.014Z,12.90
2019-06-15T05:09:35.994Z,9.50
2019-06-15T05:10:35.974Z,9.20
2019-06-15T05:11:35.990Z,11.40
2019-06-15T05:12:35.940Z,13.60
2019-06-15T05:13:38.923Z,9.80
2019-06-15T05:14:35.899Z,11.70
2019-06-15T05:15:35.880Z,7.70
2019-06-15T05:16:35.861Z,12.20
2019-06-15T05:17:35.854Z,11.80
2019-06-15T05:18:35.823Z,9.70
2019-06-15T05:19:35.803Z,9.50
2019-06-15T05:20:35.786Z,11.40
2019-06-15T05:21:35.768Z,8.20
2019-06-15T05:22:35.751Z,9.40
2019-06-15T05:23:35.729Z,8.50
2019-06-15T05:24:35.710Z,10.10
2019-06-15T05:25:35.694Z,7.60
2019-06-15T05:26:35.672Z,7.90
2019-06-15T05:27:35.654Z,8.30
2019-06-15T05:28:35.634Z,8.60
2019-06-15T05:29:35.618Z,9.90
2019-06-15T05:30:35.596Z,6.30
2019-06-15T05:31:35.578Z,10.00
2019-06-15T05:32:35.563Z,10.10
2019-06-15T05:33:35.540Z,8.20
2019-06-15T05:34:35.521Z,7.30
2019-06-15T05:35:35.507Z,10.00
2019-06-15T05:36:35.486Z,8.50
2019-06-15T05:37:35.467Z,8.70
2019-06-15T05:38:35.447Z,8.60
2019-06-15T05:39:35.430Z,6.80
2019-06-15T05:40:35.412Z,7.00
2019-06-15T05:41:35.394Z,11.40
2019-06-15T05:42:35.375Z,10.60
2019-06-15T05:43:35.358Z,9.70
2019-06-15T05:44:35.340Z,8.60
2019-06-15T05:45:35.321Z,9.40
2019-06-15T05:46:35.302Z,6.90
2019-06-15T05:47:35.314Z,7.80
2019-06-15T05:48:35.267Z,7.30
2019-06-15T05:49:35.249Z,9.20
2019-06-15T05:50:35.233Z,8.20
2019-06-15T05:51:35.214Z,12.20
2019-06-15T05:52:35.197Z,8.50
2019-06-15T05:53:35.178Z,7.80
2019-06-15T05:54:35.161Z,8.90
2019-06-15T05:55:35.143Z,8.20
2019-06-15T05:56:35.125Z,7.00
2019-06-15T05:57:35.105Z,8.90
2019-06-15T05:58:35.088Z,7.00
2019-06-15T05:59:35.071Z,10.20
2019-06-15T06:00:35.054Z,6.10
2019-06-15T06:01:35.035Z,4.80
2019-06-15T06:02:35.017Z,6.20
2019-06-15T06:03:35.001Z,6.90
2019-06-15T06:04:34.987Z,6.80
2019-06-15T06:05:34.963Z,5.90
2019-06-15T06:06:34.970Z,5.30
2019-06-15T06:07:34.927Z,5.50
2019-06-15T06:08:34.910Z,4.40
2019-06-15T06:09:34.891Z,4.90
2019-06-15T06:10:34.874Z,4.70
2019-06-15T06:11:34.866Z,4.20
2019-06-15T06:12:34.837Z,4.40
2019-06-15T06:13:34.829Z,4.60
2019-06-15T06:14:34.802Z,4.80
2019-06-15T06:15:34.789Z,5.00
2019-06-15T06:16:34.768Z,3.80
2019-06-15T06:17:34.747Z,4.00
2019-06-15T06:18:34.734Z,4.00
2019-06-15T06:19:34.713Z,6.30
2019-06-15T06:20:34.696Z,4.80
2019-06-15T06:21:34.678Z,8.80
2019-06-15T06:22:34.687Z,9.40
2019-06-15T06:23:34.644Z,5.20
2019-06-15T06:24:34.632Z,5.70
2019-06-15T06:25:34.606Z,6.50
2019-06-15T06:26:34.600Z,6.90
2019-06-15T06:27:39.833Z,6.20
2019-06-15T06:28:34.559Z,4.70
2019-06-15T06:29:34.535Z,5.50
2019-06-15T06:30:34.520Z,4.90
2019-06-15T06:31:34.502Z,4.90
2019-06-15T06:32:34.483Z,4.90
2019-06-15T06:33:34.466Z,4.10
2019-06-15T06:34:34.447Z,3.80
2019-06-15T06:35:34.429Z,4.10
2019-06-15T06:36:34.413Z,6.10
2019-06-15T06:37:34.393Z,5.30
2019-06-15T06:38:34.377Z,7.00
2019-06-15T06:39:34.358Z,3.90
2019-06-15T06:40:34.341Z,5.60
2019-06-15T06:41:34.333Z,4.30
2019-06-15T06:42:34.305Z,3.80
2019-06-15T06:43:34.291Z,3.50
2019-06-15T06:44:34.278Z,4.40
2019-06-15T06:45:34.253Z,3.10
2019-06-15T06:46:34.245Z,3.30
2019-06-15T06:47:34.218Z,4.00
2019-06-15T06:48:34.202Z,5.40
2019-06-15T06:49:34.180Z,6.10
2019-06-15T06:50:34.164Z,5.70
2019-06-15T06:51:34.150Z,5.50
2019-06-15T06:52:34.127Z,7.10
2019-06-15T06:53:34.110Z,5.20
2019-06-15T06:54:34.092Z,4.30
2019-06-15T06:55:34.074Z,7.10
2019-06-15T06:56:34.061Z,4.50
2019-06-15T06:57:34.051Z,3.20
2019-06-15T06:58:34.021Z,3.00
2019-06-15T06:59:34.003Z,3.50
2019-06-15T07:00:33.986Z,3.30
2019-06-15T07:01:33.967Z,4.50
2019-06-15T07:02:33.949Z,5.80
2019-06-15T07:03:33.936Z,3.30
2019-06-15T07:04:33.943Z,3.70
2019-06-15T07:05:33.900Z,2.80
2019-06-15T07:06:33.876Z,3.80
2019-06-15T07:07:33.860Z,3.10
2019-06-15T07:08:33.843Z,4.00
2019-06-15T07:09:33.822Z,5.60
2019-06-15T07:10:33.804Z,7.00
2019-06-15T07:11:33.790Z,2.70
2019-06-15T07:12:33.819Z,3.80
2019-06-15T07:13:33.751Z,2.80
2019-06-15T07:14:33.733Z,4.60
2019-06-15T07:15:35.967Z,3.40
2019-06-15T07:16:33.747Z,3.80
2019-06-15T07:17:33.793Z,2.80
2019-06-15T07:18:33.660Z,3.10
2019-06-15T07:19:33.649Z,2.50
2019-06-15T07:20:33.625Z,3.90
2019-06-15T07:21:33.608Z,3.10
2019-06-15T07:22:33.590Z,3.50
2019-06-15T07:23:33.585Z,6.00
2019-06-15T07:24:33.553Z,3.60
2019-06-15T07:25:33.563Z,3.60
2019-06-15T07:26:33.541Z,3.00
2019-06-15T07:27:33.529Z,5.50
2019-06-15T07:28:33.492Z,4.10
2019-06-15T07:29:33.469Z,4.20
2019-06-15T07:30:33.464Z,3.60
2019-06-15T07:31:33.433Z,4.80
2019-06-15T07:32:33.632Z,3.30
2019-06-15T07:33:33.392Z,3.30
2019-06-15T07:34:33.374Z,4.80
2019-06-15T07:35:33.354Z,5.00
2019-06-15T07:36:33.337Z,4.20
2019-06-15T07:37:33.319Z,4.30
2019-06-15T07:38:33.301Z,4.40
2019-06-15T07:39:33.283Z,5.30
2019-06-15T07:40:33.266Z,3.70
2019-06-15T07:41:33.248Z,4.50
2019-06-15T07:42:33.233Z,3.70
2019-06-15T07:43:33.214Z,4.60
2019-06-15T07:44:33.197Z,4.20
2019-06-15T07:45:33.179Z,5.00
2019-06-15T07:46:33.158Z,3.30
2019-06-15T07:47:33.144Z,4.80
2019-06-15T07:48:33.226Z,5.30
2019-06-15T07:49:33.107Z,4.40
2019-06-15T07:50:33.091Z,5.70
2019-06-15T07:51:33.081Z,5.60
2019-06-15T07:52:33.065Z,8.10
2019-06-15T07:53:33.037Z,5.50
2019-06-15T07:54:36.050Z,4.20
2019-06-15T07:55:33.051Z,4.30
2019-06-15T07:56:32.987Z,3.50
2019-06-15T07:57:32.974Z,3.60
2019-06-15T07:58:32.952Z,5.30
2019-06-15T07:59:32.937Z,3.60
2019-06-15T08:00:32.919Z,4.90
2019-06-15T08:01:32.900Z,6.30
2019-06-15T08:02:32.883Z,4.40
2019-06-15T08:03:32.870Z,5.90
2019-06-15T08:04:32.851Z,4.40
2019-06-15T08:05:32.836Z,5.20
2019-06-15T08:06:32.868Z,6.80
2019-06-15T08:07:32.801Z,3.80
2019-06-15T08:08:32.786Z,3.80
2019-06-15T08:09:35.024Z,3.50
2019-06-15T08:10:32.751Z,3.80
2019-06-15T08:11:32.739Z,4.90
2019-06-15T08:12:32.717Z,4.20
2019-06-15T08:13:32.701Z,3.50
2019-06-15T08:14:32.687Z,4.60
2019-06-15T08:15:33.419Z,4.10
2019-06-15T08:16:32.653Z,3.70
2019-06-15T08:17:32.654Z,4.40
2019-06-15T08:18:32.619Z,5.20
2019-06-15T08:19:32.602Z,4.00
2019-06-15T08:20:32.586Z,4.80
2019-06-15T08:21:32.569Z,3.50
2019-06-15T08:22:32.552Z,3.50
2019-06-15T08:23:32.536Z,3.40
2019-06-15T08:24:32.520Z,4.10
2019-06-15T08:25:32.501Z,3.50
2019-06-15T08:26:32.486Z,3.30
2019-06-15T08:27:32.468Z,3.90
2019-06-15T08:28:40.272Z,3.40
2019-06-15T08:29:32.434Z,4.50
2019-06-15T08:30:32.417Z,3.00
2019-06-15T08:31:32.403Z,3.90
2019-06-15T08:32:32.384Z,3.60
2019-06-15T08:33:32.368Z,5.00
2019-06-15T08:34:32.394Z,3.40
2019-06-15T08:35:32.334Z,3.70
2019-06-15T08:36:32.319Z,4.00
2019-06-15T08:37:32.298Z,3.80
2019-06-15T08:38:32.284Z,4.40
2019-06-15T08:39:32.267Z,3.40
2019-06-15T08:40:32.250Z,4.50
2019-06-15T08:41:32.231Z,5.20
2019-06-15T08:42:32.215Z,2.50
2019-06-15T08:43:32.203Z,3.90
2019-06-15T08:44:32.182Z,3.50
2019-06-15T08:45:32.164Z,3.00
2019-06-15T08:46:32.147Z,3.60
2019-06-15T08:47:32.131Z,5.40
2019-06-15T08:48:32.114Z,2.90
2019-06-15T08:49:32.108Z,3.30
2019-06-15T08:50:32.081Z,3.60
2019-06-15T08:51:32.063Z,4.80
2019-06-15T08:52:32.047Z,3.10
2019-06-15T08:53:32.029Z,3.90
2019-06-15T08:54:32.013Z,3.60
2019-06-15T08:55:32.003Z,3.60
2019-06-15T08:56:31.979Z,3.80
2019-06-15T08:57:31.964Z,3.60
2019-06-15T08:58:31.946Z,4.20
2019-06-15T08:59:31.930Z,3.80
2019-06-15T09:00:31.924Z,4.00
2019-06-15T09:01:31.895Z,2.80
2019-06-15T09:02:31.888Z,3.20
2019-06-15T09:03:31.865Z,5.60
2019-06-15T09:04:31.850Z,4.40
2019-06-15T09:05:31.830Z,3.00
2019-06-15T09:06:31.813Z,3.40
2019-06-15T09:07:31.797Z,3.50
2019-06-15T09:08:31.784Z,3.50
2019-06-15T09:09:31.772Z,3.30
2019-06-15T09:10:31.749Z,3.00
2019-06-15T09:11:31.734Z,4.10
2019-06-15T09:12:31.719Z,3.20
2019-06-15T09:13:32.459Z,4.00
2019-06-15T09:14:31.685Z,3.80
2019-06-15T09:15:31.675Z,2.90
2019-06-15T09:16:31.657Z,3.60
2019-06-15T09:17:31.637Z,3.10
2019-06-15T09:18:31.630Z,4.40
2019-06-15T09:19:31.607Z,3.10
2019-06-15T09:20:31.591Z,3.40
2019-06-15T09:21:31.576Z,4.40
2019-06-15T09:22:31.560Z,4.40
2019-06-15T09:23:31.544Z,2.60
2019-06-15T09:24:31.529Z,3.40
2019-06-15T09:25:31.514Z,2.70
2019-06-15T09:26:31.497Z,2.90
2019-06-15T09:27:31.482Z,4.50
2019-06-15T09:28:31.466Z,3.60
2019-06-15T09:29:31.448Z,2.70
2019-06-15T09:30:31.434Z,5.10
2019-06-15T09:31:31.420Z,3.80
2019-06-15T09:32:31.404Z,4.50
2019-06-15T09:33:31.388Z,4.10
2019-06-15T09:34:31.375Z,3.80
2019-06-15T09:35:31.358Z,2.80
2019-06-15T09:36:31.342Z,2.80
2019-06-15T09:37:31.327Z,3.30
2019-06-15T09:38:31.310Z,3.90
2019-06-15T09:39:31.295Z,3.20
2019-06-15T09:40:31.280Z,3.40
2019-06-15T09:41:31.264Z,5.50
2019-06-15T09:42:31.345Z,3.30
2019-06-15T09:43:31.235Z,3.60
2019-06-15T09:44:31.221Z,2.40
2019-06-15T09:45:33.064Z,3.20
2019-06-15T09:46:31.187Z,3.30
2019-06-15T09:47:31.174Z,3.00
2019-06-15T09:48:31.159Z,3.00
2019-06-15T09:49:31.140Z,4.80
2019-06-15T09:50:31.129Z,5.60
2019-06-15T09:51:31.110Z,3.20
2019-06-15T09:52:31.095Z,3.80
2019-06-15T09:53:31.079Z,3.30
2019-06-15T09:54:31.063Z,2.70
2019-06-15T09:55:31.048Z,2.20
2019-06-15T09:56:31.031Z,2.90
2019-06-15T09:57:31.016Z,2.80
2019-06-15T09:58:31.001Z,2.10
2019-06-15T09:59:30.985Z,2.60
2019-06-15T10:00:30.970Z,2.60
2019-06-15T10:01:30.954Z,3.30
2019-06-15T10:02:30.940Z,3.40
2019-06-15T10:03:30.923Z,2.20
2019-06-15T10:04:30.907Z,2.20
2019-06-15T10:05:30.891Z,2.20
2019-06-15T10:06:30.876Z,2.20
2019-06-15T10:07:30.865Z,2.70
2019-06-15T10:08:30.846Z,2.70
2019-06-15T10:09:30.845Z,3.10
2019-06-15T10:10:30.814Z,3.10
2019-06-15T10:11:30.800Z,2.20
2019-06-15T10:12:30.782Z,2.90
2019-06-15T10:13:31.531Z,3.60
2019-06-15T10:14:30.750Z,2.80
2019-06-15T10:15:30.735Z,2.90
2019-06-15T10:16:30.719Z,2.60
2019-06-15T10:17:30.703Z,2.90
2019-06-15T10:18:30.687Z,3.80
2019-06-15T10:19:30.671Z,2.80
2019-06-15T10:20:30.662Z,2.80
2019-06-15T10:21:30.639Z,3.40
2019-06-15T10:22:30.625Z,3.10
2019-06-15T10:23:30.669Z,3.70
2019-06-15T10:24:30.593Z,2.80
2019-06-15T10:25:30.576Z,2.50
2019-06-15T10:26:30.562Z,3.30
2019-06-15T10:27:30.545Z,3.80
2019-06-15T10:28:30.532Z,2.70
2019-06-15T10:29:41.585Z,4.70
2019-06-15T10:30:30.498Z,4.60
2019-06-15T10:31:30.483Z,3.10
2019-06-15T10:32:30.466Z,3.30
2019-06-15T10:33:30.449Z,2.10
2019-06-15T10:34:30.453Z,2.40
2019-06-15T10:35:30.420Z,6.70
2019-06-15T10:36:30.406Z,3.20
2019-06-15T10:37:30.400Z,3.80
2019-06-15T10:38:30.374Z,2.80
2019-06-15T10:39:30.358Z,2.90
2019-06-15T10:40:30.342Z,2.70
2019-06-15T10:41:30.329Z,3.60
2019-06-15T10:42:30.310Z,3.10
2019-06-15T10:43:30.294Z,2.70
2019-06-15T10:44:30.278Z,3.70
2019-06-15T10:45:30.262Z,3.80
2019-06-15T10:46:30.268Z,2.30
2019-06-15T10:47:30.232Z,3.40
2019-06-15T10:48:30.216Z,4.30
2019-06-15T10:49:30.205Z,3.10
2019-06-15T10:50:30.185Z,3.40
2019-06-15T10:51:30.176Z,2.30
2019-06-15T10:52:30.155Z,2.40
2019-06-15T10:53:30.139Z,4.50
2019-06-15T10:54:30.123Z,5.60
2019-06-15T10:55:30.108Z,3.30
2019-06-15T10:56:30.095Z,3.50
2019-06-15T10:57:30.079Z,4.40
2019-06-15T10:58:30.064Z,4.20
2019-06-15T10:59:30.050Z,2.80
2019-06-15T11:00:30.033Z,4.30
2019-06-15T11:01:30.032Z,2.30
2019-06-15T11:02:30.008Z,2.10
2019-06-15T11:03:29.987Z,2.00
2019-06-15T11:04:29.972Z,2.60
2019-06-15T11:05:29.958Z,3.00
2019-06-15T11:06:29.940Z,3.30
2019-06-15T11:07:29.927Z,3.30
2019-06-15T11:08:29.912Z,3.10
2019-06-15T11:09:29.897Z,2.30
2019-06-15T11:10:29.880Z,2.10
2019-06-15T11:11:29.865Z,2.50
2019-06-15T11:12:42.720Z,2.80
2019-06-15T11:13:29.834Z,2.40
2019-06-15T11:14:29.827Z,3.30
2019-06-15T11:15:29.808Z,3.10
2019-06-15T11:16:31.289Z,2.50
2019-06-15T11:17:29.771Z,3.60
2019-06-15T11:18:29.756Z,2.40
2019-06-15T11:19:29.743Z,2.40
2019-06-15T11:20:29.728Z,2.50
2019-06-15T11:21:29.709Z,2.10
2019-06-15T11:22:29.698Z,3.00
2019-06-15T11:23:29.690Z,2.50
2019-06-15T11:24:29.662Z,2.60
2019-06-15T11:25:29.647Z,2.20
2019-06-15T11:26:29.632Z,3.50
2019-06-15T11:27:29.616Z,3.20
2019-06-15T11:28:29.606Z,2.90
2019-06-15T11:29:29.584Z,4.70
2019-06-15T11:30:29.568Z,2.60
2019-06-15T11:31:29.553Z,2.70
2019-06-15T11:32:29.536Z,2.10
2019-06-15T11:33:29.524Z,2.30
2019-06-15T11:34:29.506Z,2.80
2019-06-15T11:35:29.489Z,2.50
2019-06-15T11:36:29.472Z,2.30
2019-06-15T11:37:29.455Z,4.30
2019-06-15T11:38:30.191Z,2.60
2019-06-15T11:39:29.425Z,2.40
2019-06-15T11:40:29.408Z,2.10
2019-06-15T11:41:29.397Z,2.60
2019-06-15T11:42:29.375Z,3.60
2019-06-15T11:43:29.395Z,2.60
2019-06-15T11:44:29.345Z,2.70
2019-06-15T11:45:29.329Z,2.40
2019-06-15T11:46:29.311Z,6.80
2019-06-15T11:47:29.295Z,2.40
2019-06-15T11:48:29.280Z,3.30
2019-06-15T11:49:29.264Z,2.40
2019-06-15T11:50:29.247Z,2.70
2019-06-15T11:51:29.231Z,2.30
2019-06-15T11:52:29.215Z,3.00
2019-06-15T11:53:29.198Z,3.10
2019-06-15T11:54:29.184Z,2.90
2019-06-15T11:55:39.004Z,2.60
2019-06-15T11:56:29.162Z,2.30
2019-06-15T11:57:29.159Z,3.70
2019-06-15T11:58:29.117Z,2.30
2019-06-15T11:59:29.102Z,3.50
2019-06-15T12:00:31.461Z,2.80
2019-06-15T12:01:29.070Z,2.50
2019-06-15T12:02:29.055Z,2.90
2019-06-15T12:03:29.039Z,2.90
2019-06-15T12:04:29.023Z,4.60
2019-06-15T12:05:29.017Z,2.60
2019-06-15T12:06:28.990Z,2.60
2019-06-15T12:07:28.976Z,2.20
2019-06-15T12:08:28.960Z,2.30
2019-06-15T12:09:28.945Z,2.70
2019-06-15T12:10:28.938Z,2.60
2019-06-15T12:11:28.915Z,3.40
2019-06-15T12:12:28.901Z,4.00
2019-06-15T12:13:28.883Z,2.30
2019-06-15T12:14:28.866Z,2.80
2019-06-15T12:15:28.854Z,2.40
2019-06-15T12:16:28.845Z,3.80
2019-06-15T12:17:28.820Z,2.90
2019-06-15T12:18:28.804Z,2.30
2019-06-15T12:19:28.789Z,3.40
2019-06-15T12:20:28.774Z,2.60
2019-06-15T12:21:28.801Z,2.50
2019-06-15T12:22:28.742Z,4.10
2019-06-15T12:23:28.739Z,3.20
2019-06-15T12:24:28.712Z,2.10
2019-06-15T12:25:28.703Z,2.60
2019-06-15T12:26:28.680Z,2.10
2019-06-15T12:27:28.665Z,3.50
2019-06-15T12:28:28.650Z,2.90
2019-06-15T12:29:28.634Z,3.00
2019-06-15T12:30:28.622Z,3.10
2019-06-15T12:31:28.606Z,2.70
2019-06-15T12:32:31.627Z,4.00
2019-06-15T12:33:28.574Z,2.20
2019-06-15T12:34:28.557Z,2.50
2019-06-15T12:35:28.542Z,2.20
2019-06-15T12:36:28.533Z,2.20
2019-06-15T12:37:28.511Z,3.40
2019-06-15T12:38:28.495Z,2.10
2019-06-15T12:39:28.485Z,2.70
2019-06-15T12:40:28.465Z,3.00
2019-06-15T12:41:28.449Z,2.50
2019-06-15T12:42:28.434Z,2.30
2019-06-15T12:43:28.427Z,3.60
2019-06-15T12:44:28.408Z,2.70
2019-06-15T12:45:28.387Z,2.70
2019-06-15T12:46:28.372Z,2.20
2019-06-15T12:47:28.357Z,4.00
2019-06-15T12:48:28.342Z,2.70
2019-06-15T12:49:28.325Z,2.30
2019-06-15T12:50:28.312Z,2.30
2019-06-15T12:51:28.295Z,2.80
2019-06-15T12:52:28.281Z,2.30
2019-06-15T12:53:28.264Z,3.70
2019-06-15T12:54:28.247Z,3.40
2019-06-15T12:55:28.237Z,2.50
2019-06-15T12:56:28.220Z,3.10
2019-06-15T12:57:28.203Z,2.10
2019-06-15T12:58:28.189Z,2.10
2019-06-15T12:59:28.172Z,2.80
2019-06-15T13:00:28.163Z,3.10
2019-06-15T13:01:28.142Z,1.90
2019-06-15T13:02:28.126Z,3.00
2019-06-15T13:03:28.111Z,2.00
2019-06-15T13:04:28.095Z,4.60
2019-06-15T13:05:28.079Z,2.40
2019-06-15T13:06:28.065Z,2.70
2019-06-15T13:07:28.049Z,2.70
2019-06-15T13:08:28.040Z,2.20
2019-06-15T13:09:28.022Z,2.30
2019-06-15T13:10:28.004Z,3.10
2019-06-15T13:11:27.989Z,3.30
2019-06-15T13:12:27.975Z,3.30